createdAt,value
2023-01-25T04:22:23.101Z,100.00
2023-01-25T04:24:52.801Z,100.00
2023-01-25T04:27:21.508Z,100.00
2023-01-25T04:30:01.935Z,100.00
2023-01-25T04:32:31.553Z,100.00
2023-01-25T04:35:01.091Z,100.00
2023-01-25T04:37:31.051Z,100.00
2023-01-25T04:40:00.533Z,100.00
2023-01-25T04:42:32.109Z,100.00
2023-01-25T04:45:00.804Z,100.00
2023-01-25T04:47:29.634Z,100.00
2023-01-25T04:49:58.144Z,100.00
2023-01-25T04:52:27.012Z,100.00
2023-01-25T04:54:55.863Z,100.00
2023-01-25T04:57:24.497Z,100.00
2023-01-25T04:59:54.252Z,100.00
2023-01-25T05:02:24.269Z,100.00
2023-01-25T05:04:54.369Z,100.00
2023-01-25T05:07:23.046Z,100.00
2023-01-25T05:09:51.856Z,100.00
2023-01-25T05:12:21.313Z,100.00
2023-01-25T05:15:00.352Z,100.00
2023-01-25T05:17:29.196Z,100.00
2023-01-25T05:19:59.444Z,100.00
2023-01-25T05:22:27.860Z,100.00
2023-01-25T05:24:56.298Z,100.00
2023-01-25T05:27:26.770Z,100.00
2023-01-25T05:29:55.341Z,100.00
2023-01-25T05:32:28.446Z,100.00
2023-01-25T05:34:59.914Z,100.00
2023-01-25T05:37:29.807Z,100.00
2023-01-25T05:40:09.776Z,100.00
2023-01-25T05:42:40.164Z,100.00
2023-01-25T05:45:14.549Z,100.00
2023-01-25T05:47:44.177Z,100.00
2023-01-25T05:50:12.796Z,100.00
2023-01-25T05:52:50.279Z,100.00
2023-01-25T05:55:18.800Z,100.00
2023-01-25T05:57:48.178Z,100.00
2023-01-25T06:00:17.881Z,100.00
2023-01-25T06:02:48.771Z,100.00
2023-01-25T06:05:20.996Z,100.00
2023-01-25T06:07:50.988Z,100.00
2023-01-25T06:10:22.461Z,100.00
2023-01-25T06:12:58.315Z,100.00
2023-01-25T06:15:27.294Z,100.00
2023-01-25T06:18:02.258Z,100.00
2023-01-25T06:20:42.067Z,100.00
2023-01-25T06:23:11.435Z,100.00
2023-01-25T06:25:44.008Z,100.00
2023-01-25T06:28:12.826Z,100.00
2023-01-25T06:30:44.166Z,100.00
2023-01-25T06:33:27.688Z,100.00
2023-01-25T06:36:08.360Z,100.00
2023-01-25T06:38:39.149Z,100.00
2023-01-25T06:41:12.134Z,100.00
2023-01-25T06:43:49.626Z,100.00
2023-01-25T06:46:23.368Z,100.00
2023-01-25T06:48:53.687Z,100.00
2023-01-25T06:51:23.053Z,100.00
2023-01-25T06:53:51.585Z,100.00
2023-01-25T06:56:25.035Z,100.00
2023-01-25T06:58:54.886Z,100.00
2023-01-25T07:01:27.710Z,100.00
2023-01-25T13:17:44.314Z,97.50
2023-01-25T13:20:40.910Z,96.42
2023-01-25T13:23:32.569Z,96.44
2023-01-25T13:26:22.146Z,96.14
2023-01-25T13:28:52.072Z,95.38
2023-01-25T13:31:50.924Z,95.17
2023-01-25T13:34:34.305Z,95.58
2023-01-25T13:37:03.403Z,95.98
2023-01-25T13:39:34.643Z,95.72
2023-01-25T13:42:09.230Z,95.37
2023-01-25T13:44:43.179Z,94.80
2023-01-25T13:47:15.742Z,94.54
2023-01-25T13:49:50.360Z,94.73
2023-01-25T13:52:19.498Z,95.08
2023-01-25T13:54:48.163Z,95.63
2023-01-25T13:57:20.698Z,96.04
2023-01-25T14:00:09.964Z,95.59
2023-01-25T14:02:37.983Z,95.29
2023-01-25T14:05:07.955Z,95.36
2023-01-25T14:07:39.761Z,95.79
2023-01-25T14:10:11.265Z,95.90
2023-01-25T14:12:41.003Z,96.03
2023-01-25T14:15:25.425Z,96.20
2023-01-25T14:18:09.618Z,96.26
2023-01-25T14:20:38.337Z,96.31
2023-01-25T14:23:05.565Z,96.09
2023-01-25T14:25:34.872Z,95.33
2023-01-25T14:28:02.432Z,95.25
2023-01-25T14:30:32.064Z,95.30
2023-01-25T14:33:01.000Z,95.59
2023-01-25T14:35:42.765Z,95.76
2023-01-25T14:38:35.671Z,95.80
2023-01-25T14:41:03.153Z,95.67
2023-01-25T14:43:30.623Z,95.34
2023-01-25T14:45:57.920Z,95.10
2023-01-25T14:48:40.041Z,95.43
2023-01-25T14:51:22.698Z,96.10
2023-01-25T14:53:52.043Z,96.79
2023-01-25T14:56:45.779Z,97.05
2023-01-25T14:59:32.132Z,97.72
2023-01-25T15:02:21.381Z,98.66
2023-01-25T15:05:11.075Z,98.98
2023-01-25T15:07:48.017Z,99.04
2023-01-25T15:10:20.618Z,99.01
2023-01-25T15:13:12.991Z,99.04
2023-01-25T15:15:58.558Z,99.33
2023-01-25T15:18:53.718Z,99.83
2023-01-25T15:21:28.929Z,99.84
2023-01-25T15:23:57.872Z,99.65
2023-01-25T15:26:29.399Z,99.46
2023-01-25T15:29:15.038Z,99.75
2023-01-25T15:31:42.503Z,99.77
2023-01-25T15:34:14.633Z,99.83
2023-01-25T15:36:42.025Z,99.78
2023-01-25T15:39:17.316Z,99.89
2023-01-25T15:41:46.638Z,99.68
2023-01-25T15:44:14.270Z,99.33
2023-01-25T15:46:43.156Z,98.96
2023-01-25T15:49:16.167Z,99.30
2023-01-25T15:51:43.947Z,99.43
2023-01-25T15:54:11.218Z,99.37
2023-01-25T15:56:39.952Z,99.36
2023-01-25T15:59:08.716Z,99.33
2023-01-25T16:01:36.499Z,98.95
2023-01-25T16:04:13.324Z,99.07
2023-01-25T16:06:51.371Z,99.24
2023-01-25T16:09:26.477Z,98.97
2023-01-25T16:11:55.366Z,98.97
2023-01-25T16:14:28.432Z,99.28
2023-01-25T16:16:57.600Z,99.74
2023-01-25T22:22:43.427Z,100.00
2023-01-25T22:25:10.377Z,100.00
2023-01-25T22:27:52.060Z,100.00
2023-01-25T22:30:22.295Z,100.00
2023-01-25T22:32:50.016Z,100.00
2023-01-25T22:35:17.381Z,100.00
2023-01-25T22:37:44.852Z,100.00
2023-01-25T22:40:12.648Z,100.00
2023-01-25T22:42:39.918Z,100.00
2023-01-25T22:45:07.338Z,100.00
2023-01-25T22:47:35.231Z,100.00
2023-01-25T22:50:03.429Z,100.00
2023-01-25T22:52:34.221Z,100.00
2023-01-25T22:55:01.467Z,100.00
2023-01-25T22:57:29.429Z,100.00
2023-01-25T22:59:56.919Z,100.00
2023-01-25T23:02:24.986Z,100.00
2023-01-25T23:04:52.195Z,100.00
2023-01-25T23:07:19.309Z,100.00
2023-01-25T23:09:51.278Z,100.00
2023-01-25T23:12:20.532Z,100.00
2023-01-25T23:15:00.648Z,100.00
2023-01-25T23:17:48.385Z,100.00
2023-01-25T23:20:20.584Z,100.00
2023-01-25T23:22:50.366Z,100.00
2023-01-25T23:25:18.248Z,100.00
2023-01-25T23:27:53.626Z,100.00
2023-01-25T23:30:24.383Z,100.00
2023-01-25T23:32:58.477Z,100.00
2023-01-25T23:35:56.178Z,100.00
2023-01-25T23:38:27.782Z,100.00
2023-01-25T23:40:57.308Z,100.00
2023-01-25T23:43:25.793Z,100.00
2023-01-25T23:46:03.815Z,100.00
2023-01-25T23:48:37.390Z,100.00
2023-01-25T23:51:08.253Z,100.00
2023-01-25T23:54:04.942Z,100.00
2023-01-25T23:56:33.989Z,100.00
2023-01-25T23:59:01.452Z,100.00
